sensor_id;sensor_type;location;lat;lon;timestamp;temperature;humidity
12470;DHT22;36499;46.484;13.832;2023-05-14T00:02:16;8.30;99.90
12470;DHT22;36499;46.484;13.832;2023-05-14T00:04:43;8.30;99.90
12470;DHT22;36499;46.484;13.832;2023-05-14T00:07:10;8.30;99.90
12470;DHT22;36499;46.484;13.832;2023-05-14T00:09:37;8.30;99.90
12470;DHT22;36499;46.484;13.832;2023-05-14T00:12:06;8.30;99.90
12470;DHT22;36499;46.484;13.832;2023-05-14T00:14:34;8.20;99.90
12470;DHT22;36499;46.484;13.832;2023-05-14T00:17:01;8.20;99.90
12470;DHT22;36499;46.484;13.832;2023-05-14T00:19:28;8.20;99.90
12470;DHT22;36499;46.484;13.832;2023-05-14T00:21:55;8.20;99.90
12470;DHT22;36499;46.484;13.832;2023-05-14T00:24:22;8.20;99.90
12470;DHT22;36499;46.484;13.832;2023-05-14T00:26:49;8.20;99.90
12470;DHT22;36499;46.484;13.832;2023-05-14T00:29:17;8.20;99.90
12470;DHT22;36499;46.484;13.832;2023-05-14T00:31:44;8.20;99.90
12470;DHT22;36499;46.484;13.832;2023-05-14T00:34:11;8.20;99.90
12470;DHT22;36499;46.484;13.832;2023-05-14T00:36:38;8.20;99.90
12470;DHT22;36499;46.484;13.832;2023-05-14T00:39:05;8.20;99.90
12470;DHT22;36499;46.484;13.832;2023-05-14T00:41:32;8.20;99.90
12470;DHT22;36499;46.484;13.832;2023-05-14T00:43:59;8.20;99.90
12470;DHT22;36499;46.484;13.832;2023-05-14T00:46:28;8.20;99.90
12470;DHT22;36499;46.484;13.832;2023-05-14T00:48:55;8.20;99.90
12470;DHT22;36499;46.484;13.832;2023-05-14T00:51:23;8.20;99.90
12470;DHT22;36499;46.484;13.832;2023-05-14T00:53:51;8.20;99.90
12470;DHT22;36499;46.484;13.832;2023-05-14T00:56:19;8.20;99.90
12470;DHT22;36499;46.484;13.832;2023-05-14T00:58:48;8.20;99.90
12470;DHT22;36499;46.484;13.832;2023-05-14T01:01:15;8.20;99.90
12470;DHT22;36499;46.484;13.832;2023-05-14T01:03:44;8.20;99.90
12470;DHT22;36499;46.484;13.832;2023-05-14T01:06:16;8.20;99.90
12470;DHT22;36499;46.484;13.832;2023-05-14T01:09:00;8.20;99.90
12470;DHT22;36499;46.484;13.832;2023-05-14T01:11:40;8.20;99.90
12470;DHT22;36499;46.484;13.832;2023-05-14T01:14:20;8.20;99.90
12470;DHT22;36499;46.484;13.832;2023-05-14T01:16:55;8.20;99.90
12470;DHT22;36499;46.484;13.832;2023-05-14T01:19:34;8.10;99.90
12470;DHT22;36499;46.484;13.832;2023-05-14T01:22:06;8.10;99.90
12470;DHT22;36499;46.484;13.832;2023-05-14T01:24:34;8.00;99.90
12470;DHT22;36499;46.484;13.832;2023-05-14T01:27:07;8.10;99.90
12470;DHT22;36499;46.484;13.832;2023-05-14T01:29:42;8.10;99.90
12470;DHT22;36499;46.484;13.832;2023-05-14T01:32:16;8.10;99.90
12470;DHT22;36499;46.484;13.832;2023-05-14T01:34:49;8.10;99.90
12470;DHT22;36499;46.484;13.832;2023-05-14T01:37:19;8.10;99.90
12470;DHT22;36499;46.484;13.832;2023-05-14T01:39:48;8.10;99.90
12470;DHT22;36499;46.484;13.832;2023-05-14T01:42:17;8.10;99.90
12470;DHT22;36499;46.484;13.832;2023-05-14T01:44:45;8.10;99.90
12470;DHT22;36499;46.484;13.832;2023-05-14T01:47:12;8.20;99.90
12470;DHT22;36499;46.484;13.832;2023-05-14T01:49:39;8.20;99.90
12470;DHT22;36499;46.484;13.832;2023-05-14T01:52:07;8.10;99.90
12470;DHT22;36499;46.484;13.832;2023-05-14T01:54:35;8.10;99.90
12470;DHT22;36499;46.484;13.832;2023-05-14T01:57:03;8.10;99.90
12470;DHT22;36499;46.484;13.832;2023-05-14T01:59:30;8.10;99.90
12470;DHT22;36499;46.484;13.832;2023-05-14T02:01:57;8.20;99.90
12470;DHT22;36499;46.484;13.832;2023-05-14T02:04:24;8.20;99.90
12470;DHT22;36499;46.484;13.832;2023-05-14T02:06:51;8.20;99.90
12470;DHT22;36499;46.484;13.832;2023-05-14T02:09:18;8.20;99.90
12470;DHT22;36499;46.484;13.832;2023-05-14T02:11:46;8.20;99.90
12470;DHT22;36499;46.484;13.832;2023-05-14T02:14:14;8.20;99.90
12470;DHT22;36499;46.484;13.832;2023-05-14T02:16:41;8.20;99.90
12470;DHT22;36499;46.484;13.832;2023-05-14T02:19:08;8.20;99.90
12470;DHT22;36499;46.484;13.832;2023-05-14T02:21:35;8.20;99.90
12470;DHT22;36499;46.484;13.832;2023-05-14T02:24:02;8.20;99.90
12470;DHT22;36499;46.484;13.832;2023-05-14T02:26:30;8.20;99.90
12470;DHT22;36499;46.484;13.832;2023-05-14T02:28:58;8.10;99.90
12470;DHT22;36499;46.484;13.832;2023-05-14T02:31:25;8.10;99.90
12470;DHT22;36499;46.484;13.832;2023-05-14T02:33:52;8.10;99.90
12470;DHT22;36499;46.484;13.832;2023-05-14T02:36:19;8.10;99.90
12470;DHT22;36499;46.484;13.832;2023-05-14T02:38:46;8.10;99.90
12470;DHT22;36499;46.484;13.832;2023-05-14T02:41:13;8.10;99.90
12470;DHT22;36499;46.484;13.832;2023-05-14T02:43:40;8.10;99.90
12470;DHT22;36499;46.484;13.832;2023-05-14T02:46:08;8.10;99.90
12470;DHT22;36499;46.484;13.832;2023-05-14T02:48:35;8.00;99.90
12470;DHT22;36499;46.484;13.832;2023-05-14T02:51:03;8.00;99.90
12470;DHT22;36499;46.484;13.832;2023-05-14T02:53:30;8.00;99.90
12470;DHT22;36499;46.484;13.832;2023-05-14T02:55:57;8.10;99.90
12470;DHT22;36499;46.484;13.832;2023-05-14T02:58:24;8.10;99.90
12470;DHT22;36499;46.484;13.832;2023-05-14T03:00:51;8.10;99.90
12470;DHT22;36499;46.484;13.832;2023-05-14T03:03:19;8.10;99.90
12470;DHT22;36499;46.484;13.832;2023-05-14T03:05:46;8.10;99.90
12470;DHT22;36499;46.484;13.832;2023-05-14T03:08:13;8.10;99.90
12470;DHT22;36499;46.484;13.832;2023-05-14T03:10:40;8.10;99.90
12470;DHT22;36499;46.484;13.832;2023-05-14T03:13:07;8.10;99.90
12470;DHT22;36499;46.484;13.832;2023-05-14T03:15:34;8.10;99.90
12470;DHT22;36499;46.484;13.832;2023-05-14T03:18:01;8.10;99.90
12470;DHT22;36499;46.484;13.832;2023-05-14T03:20:30;8.00;99.90
12470;DHT22;36499;46.484;13.832;2023-05-14T03:22:57;8.00;99.90
12470;DHT22;36499;46.484;13.832;2023-05-14T03:25:24;8.00;99.90
12470;DHT22;36499;46.484;13.832;2023-05-14T03:27:51;8.10;99.90
12470;DHT22;36499;46.484;13.832;2023-05-14T03:30:18;8.00;99.90
12470;DHT22;36499;46.484;13.832;2023-05-14T03:32:45;8.10;99.90
12470;DHT22;36499;46.484;13.832;2023-05-14T03:35:12;8.10;99.90
12470;DHT22;36499;46.484;13.832;2023-05-14T03:37:40;8.10;99.90
12470;DHT22;36499;46.484;13.832;2023-05-14T03:40:08;8.20;99.90
12470;DHT22;36499;46.484;13.832;2023-05-14T03:42:36;8.20;99.90
12470;DHT22;36499;46.484;13.832;2023-05-14T03:45:03;8.20;99.90
12470;DHT22;36499;46.484;13.832;2023-05-14T03:47:31;8.20;99.90
12470;DHT22;36499;46.484;13.832;2023-05-14T03:49:58;8.20;99.90
12470;DHT22;36499;46.484;13.832;2023-05-14T03:52:25;8.20;99.90
12470;DHT22;36499;46.484;13.832;2023-05-14T03:54:53;8.20;99.90
12470;DHT22;36499;46.484;13.832;2023-05-14T03:57:20;8.20;99.90
12470;DHT22;36499;46.484;13.832;2023-05-14T03:59:47;8.20;99.90
12470;DHT22;36499;46.484;13.832;2023-05-14T04:02:15;8.20;99.90
12470;DHT22;36499;46.484;13.832;2023-05-14T04:04:42;8.20;99.90
12470;DHT22;36499;46.484;13.832;2023-05-14T04:07:09;8.20;99.90
12470;DHT22;36499;46.484;13.832;2023-05-14T04:09:36;8.10;99.90
12470;DHT22;36499;46.484;13.832;2023-05-14T04:12:05;8.20;99.90
12470;DHT22;36499;46.484;13.832;2023-05-14T04:14:33;8.20;99.90
12470;DHT22;36499;46.484;13.832;2023-05-14T04:17:00;8.20;99.90
12470;DHT22;36499;46.484;13.832;2023-05-14T04:19:27;8.20;99.90
12470;DHT22;36499;46.484;13.832;2023-05-14T04:21:54;8.20;99.90
12470;DHT22;36499;46.484;13.832;2023-05-14T04:24:21;8.20;99.90
12470;DHT22;36499;46.484;13.832;2023-05-14T04:26:48;8.20;99.90
12470;DHT22;36499;46.484;13.832;2023-05-14T04:29:16;8.20;99.90
12470;DHT22;36499;46.484;13.832;2023-05-14T04:31:43;8.20;99.90
12470;DHT22;36499;46.484;13.832;2023-05-14T04:34:11;8.20;99.90
12470;DHT22;36499;46.484;13.832;2023-05-14T04:36:38;8.20;99.90
12470;DHT22;36499;46.484;13.832;2023-05-14T04:39:05;8.20;99.90
12470;DHT22;36499;46.484;13.832;2023-05-14T04:41:33;8.20;99.90
12470;DHT22;36499;46.484;13.832;2023-05-14T04:44:02;8.20;99.90
12470;DHT22;36499;46.484;13.832;2023-05-14T04:46:30;8.20;99.90
12470;DHT22;36499;46.484;13.832;2023-05-14T04:48:57;8.20;99.90
12470;DHT22;36499;46.484;13.832;2023-05-14T04:51:25;8.20;99.90
12470;DHT22;36499;46.484;13.832;2023-05-14T04:53:52;8.20;99.90
12470;DHT22;36499;46.484;13.832;2023-05-14T04:56:19;8.20;99.90
12470;DHT22;36499;46.484;13.832;2023-05-14T04:58:46;8.20;99.90
12470;DHT22;36499;46.484;13.832;2023-05-14T05:01:13;8.30;99.90
12470;DHT22;36499;46.484;13.832;2023-05-14T05:03:42;8.30;99.90
12470;DHT22;36499;46.484;13.832;2023-05-14T05:06:09;8.20;99.90
12470;DHT22;36499;46.484;13.832;2023-05-14T05:08:36;8.30;99.90
12470;DHT22;36499;46.484;13.832;2023-05-14T05:11:03;8.30;99.90
12470;DHT22;36499;46.484;13.832;2023-05-14T05:13:30;8.30;99.90
12470;DHT22;36499;46.484;13.832;2023-05-14T05:15:57;8.30;99.90
12470;DHT22;36499;46.484;13.832;2023-05-14T05:18:25;8.30;99.90
12470;DHT22;36499;46.484;13.832;2023-05-14T05:20:53;8.40;99.90
12470;DHT22;36499;46.484;13.832;2023-05-14T05:23:20;8.40;99.90
12470;DHT22;36499;46.484;13.832;2023-05-14T05:25:48;8.40;99.90
12470;DHT22;36499;46.484;13.832;2023-05-14T05:28:15;8.50;99.90
12470;DHT22;36499;46.484;13.832;2023-05-14T05:30:42;8.50;99.90
12470;DHT22;36499;46.484;13.832;2023-05-14T05:33:10;8.50;99.90
12470;DHT22;36499;46.484;13.832;2023-05-14T05:35:38;8.50;99.90
12470;DHT22;36499;46.484;13.832;2023-05-14T05:38:06;8.50;99.90
12470;DHT22;36499;46.484;13.832;2023-05-14T05:40:33;8.60;99.90
12470;DHT22;36499;46.484;13.832;2023-05-14T05:43:00;8.60;99.90
12470;DHT22;36499;46.484;13.832;2023-05-14T05:45:27;8.60;99.90
12470;DHT22;36499;46.484;13.832;2023-05-14T05:47:54;8.60;99.90
12470;DHT22;36499;46.484;13.832;2023-05-14T05:50:22;8.60;99.90
12470;DHT22;36499;46.484;13.832;2023-05-14T05:52:49;8.70;99.90
12470;DHT22;36499;46.484;13.832;2023-05-14T05:55:18;8.70;99.90
12470;DHT22;36499;46.484;13.832;2023-05-14T05:57:45;8.70;99.90
12470;DHT22;36499;46.484;13.832;2023-05-14T06:00:13;8.70;99.90
12470;DHT22;36499;46.484;13.832;2023-05-14T06:02:41;8.70;99.90
12470;DHT22;36499;46.484;13.832;2023-05-14T06:05:09;8.70;99.90
12470;DHT22;36499;46.484;13.832;2023-05-14T06:07:36;8.70;99.90
12470;DHT22;36499;46.484;13.832;2023-05-14T06:10:05;8.70;99.90
12470;DHT22;36499;46.484;13.832;2023-05-14T06:12:34;8.70;99.90
12470;DHT22;36499;46.484;13.832;2023-05-14T06:15:01;8.70;99.90
12470;DHT22;36499;46.484;13.832;2023-05-14T06:17:28;8.70;99.90
12470;DHT22;36499;46.484;13.832;2023-05-14T06:19:55;8.60;99.90
12470;DHT22;36499;46.484;13.832;2023-05-14T06:22:22;8.60;99.90
12470;DHT22;36499;46.484;13.832;2023-05-14T06:24:49;8.60;99.90
12470;DHT22;36499;46.484;13.832;2023-05-14T06:27:16;8.50;99.90
12470;DHT22;36499;46.484;13.832;2023-05-14T06:29:45;8.50;99.90
12470;DHT22;36499;46.484;13.832;2023-05-14T06:32:12;8.50;99.90
12470;DHT22;36499;46.484;13.832;2023-05-14T06:34:40;8.50;99.90
12470;DHT22;36499;46.484;13.832;2023-05-14T06:37:07;8.50;99.90
12470;DHT22;36499;46.484;13.832;2023-05-14T06:39:35;8.50;99.90
12470;DHT22;36499;46.484;13.832;2023-05-14T06:42:02;8.50;99.90
12470;DHT22;36499;46.484;13.832;2023-05-14T06:44:30;8.50;99.90
12470;DHT22;36499;46.484;13.832;2023-05-14T06:46:59;8.60;99.90
12470;DHT22;36499;46.484;13.832;2023-05-14T06:49:26;8.60;99.90
12470;DHT22;36499;46.484;13.832;2023-05-14T06:51:53;8.60;99.90
12470;DHT22;36499;46.484;13.832;2023-05-14T06:54:20;8.60;99.90
12470;DHT22;36499;46.484;13.832;2023-05-14T06:56:47;8.70;99.90
12470;DHT22;36499;46.484;13.832;2023-05-14T06:59:14;8.90;99.90
12470;DHT22;36499;46.484;13.832;2023-05-14T07:01:41;9.00;99.90
12470;DHT22;36499;46.484;13.832;2023-05-14T07:04:09;9.20;99.90
12470;DHT22;36499;46.484;13.832;2023-05-14T07:06:36;9.30;99.90
12470;DHT22;36499;46.484;13.832;2023-05-14T07:09:03;9.30;99.90
12470;DHT22;36499;46.484;13.832;2023-05-14T07:11:31;9.30;99.90
12470;DHT22;36499;46.484;13.832;2023-05-14T07:13:58;9.30;99.90
12470;DHT22;36499;46.484;13.832;2023-05-14T07:16:25;9.40;99.90
12470;DHT22;36499;46.484;13.832;2023-05-14T07:18:52;9.40;99.90
12470;DHT22;36499;46.484;13.832;2023-05-14T07:21:21;9.40;99.90
12470;DHT22;36499;46.484;13.832;2023-05-14T07:23:48;9.40;99.90
12470;DHT22;36499;46.484;13.832;2023-05-14T07:26:15;9.40;99.90
12470;DHT22;36499;46.484;13.832;2023-05-14T07:28:42;9.40;99.90
12470;DHT22;36499;46.484;13.832;2023-05-14T07:31:09;9.40;99.90
12470;DHT22;36499;46.484;13.832;2023-05-14T07:33:37;9.40;99.90
12470;DHT22;36499;46.484;13.832;2023-05-14T07:36:04;9.40;99.90
12470;DHT22;36499;46.484;13.832;2023-05-14T07:38:34;9.50;99.90
12470;DHT22;36499;46.484;13.832;2023-05-14T07:41:01;9.50;99.90
12470;DHT22;36499;46.484;13.832;2023-05-14T07:43:28;9.50;99.90
12470;DHT22;36499;46.484;13.832;2023-05-14T07:45:55;9.40;99.90
12470;DHT22;36499;46.484;13.832;2023-05-14T07:48:22;9.40;99.90
12470;DHT22;36499;46.484;13.832;2023-05-14T07:50:49;9.40;99.90
12470;DHT22;36499;46.484;13.832;2023-05-14T07:53:16;9.40;99.90
12470;DHT22;36499;46.484;13.832;2023-05-14T07:55:45;9.40;99.90
12470;DHT22;36499;46.484;13.832;2023-05-14T07:58:12;9.40;99.90
12470;DHT22;36499;46.484;13.832;2023-05-14T08:00:40;9.50;99.90
12470;DHT22;36499;46.484;13.832;2023-05-14T08:03:07;9.50;99.90
12470;DHT22;36499;46.484;13.832;2023-05-14T08:05:34;9.60;99.90
12470;DHT22;36499;46.484;13.832;2023-05-14T08:08:01;9.60;99.90
12470;DHT22;36499;46.484;13.832;2023-05-14T08:10:29;9.60;99.90
12470;DHT22;36499;46.484;13.832;2023-05-14T08:12:57;9.70;99.90
12470;DHT22;36499;46.484;13.832;2023-05-14T08:15:24;9.70;99.90
12470;DHT22;36499;46.484;13.832;2023-05-14T08:17:51;9.70;99.90
12470;DHT22;36499;46.484;13.832;2023-05-14T08:20:18;9.70;99.90
12470;DHT22;36499;46.484;13.832;2023-05-14T08:22:45;9.80;99.90
12470;DHT22;36499;46.484;13.832;2023-05-14T08:25:12;9.80;99.90
12470;DHT22;36499;46.484;13.832;2023-05-14T08:27:39;9.70;99.90
12470;DHT22;36499;46.484;13.832;2023-05-14T08:30:09;9.80;99.90
12470;DHT22;36499;46.484;13.832;2023-05-14T08:32:36;9.80;99.90
12470;DHT22;36499;46.484;13.832;2023-05-14T08:35:04;9.70;99.90
12470;DHT22;36499;46.484;13.832;2023-05-14T08:37:32;9.70;99.90
12470;DHT22;36499;46.484;13.832;2023-05-14T08:40:00;9.70;99.90
12470;DHT22;36499;46.484;13.832;2023-05-14T08:42:27;9.70;99.90
12470;DHT22;36499;46.484;13.832;2023-05-14T08:44:59;9.60;99.90
12470;DHT22;36499;46.484;13.832;2023-05-14T08:47:29;9.60;99.90
12470;DHT22;36499;46.484;13.832;2023-05-14T08:50:00;9.60;99.90
12470;DHT22;36499;46.484;13.832;2023-05-14T08:52:29;9.50;99.90
12470;DHT22;36499;46.484;13.832;2023-05-14T08:54:59;9.60;99.90
12470;DHT22;36499;46.484;13.832;2023-05-14T08:57:29;9.60;99.90
12470;DHT22;36499;46.484;13.832;2023-05-14T08:59:58;9.60;99.90
12470;DHT22;36499;46.484;13.832;2023-05-14T09:02:29;9.60;99.90
12470;DHT22;36499;46.484;13.832;2023-05-14T09:04:58;9.60;99.90
12470;DHT22;36499;46.484;13.832;2023-05-14T09:07:27;9.70;99.90
12470;DHT22;36499;46.484;13.832;2023-05-14T09:09:54;9.70;99.90
12470;DHT22;36499;46.484;13.832;2023-05-14T09:12:21;9.80;99.90
12470;DHT22;36499;46.484;13.832;2023-05-14T09:14:49;9.90;99.90
12470;DHT22;36499;46.484;13.832;2023-05-14T09:17:17;9.90;99.90
12470;DHT22;36499;46.484;13.832;2023-05-14T09:19:46;10.00;99.90
12470;DHT22;36499;46.484;13.832;2023-05-14T09:22:18;10.10;99.90
12470;DHT22;36499;46.484;13.832;2023-05-14T09:24:45;10.20;99.90
12470;DHT22;36499;46.484;13.832;2023-05-14T09:27:29;10.20;99.90
12470;DHT22;36499;46.484;13.832;2023-05-14T09:30:09;10.30;99.90
12470;DHT22;36499;46.484;13.832;2023-05-14T09:32:38;10.30;99.90
12470;DHT22;36499;46.484;13.832;2023-05-14T09:35:10;10.30;99.90
12470;DHT22;36499;46.484;13.832;2023-05-14T09:37:41;10.30;99.90
12470;DHT22;36499;46.484;13.832;2023-05-14T09:40:09;10.40;99.90
12470;DHT22;36499;46.484;13.832;2023-05-14T09:42:36;10.40;99.90
12470;DHT22;36499;46.484;13.832;2023-05-14T09:45:06;10.30;99.90
12470;DHT22;36499;46.484;13.832;2023-05-14T09:47:35;10.30;99.90
12470;DHT22;36499;46.484;13.832;2023-05-14T09:50:02;10.30;99.90
12470;DHT22;36499;46.484;13.832;2023-05-14T09:52:31;10.40;99.90
12470;DHT22;36499;46.484;13.832;2023-05-14T09:54:59;10.40;99.90
12470;DHT22;36499;46.484;13.832;2023-05-14T09:57:27;10.40;99.90
12470;DHT22;36499;46.484;13.832;2023-05-14T09:59:54;10.40;99.90
12470;DHT22;36499;46.484;13.832;2023-05-14T10:02:22;10.40;99.90
12470;DHT22;36499;46.484;13.832;2023-05-14T10:04:52;10.40;99.90
12470;DHT22;36499;46.484;13.832;2023-05-14T10:07:26;10.40;99.90
12470;DHT22;36499;46.484;13.832;2023-05-14T10:10:02;10.40;99.90
12470;DHT22;36499;46.484;13.832;2023-05-14T10:12:35;10.40;99.90
12470;DHT22;36499;46.484;13.832;2023-05-14T10:15:10;10.30;99.90
12470;DHT22;36499;46.484;13.832;2023-05-14T10:17:44;10.30;99.90
12470;DHT22;36499;46.484;13.832;2023-05-14T10:20:14;10.30;99.90
12470;DHT22;36499;46.484;13.832;2023-05-14T10:22:42;10.30;99.90
12470;DHT22;36499;46.484;13.832;2023-05-14T10:25:11;10.30;99.90
12470;DHT22;36499;46.484;13.832;2023-05-14T10:27:39;10.20;99.90
12470;DHT22;36499;46.484;13.832;2023-05-14T10:30:10;10.20;99.90
12470;DHT22;36499;46.484;13.832;2023-05-14T10:32:38;10.10;99.90
12470;DHT22;36499;46.484;13.832;2023-05-14T10:35:15;10.10;99.90
12470;DHT22;36499;46.484;13.832;2023-05-14T10:37:45;10.00;99.90
12470;DHT22;36499;46.484;13.832;2023-05-14T10:40:13;10.00;99.90
12470;DHT22;36499;46.484;13.832;2023-05-14T10:42:42;10.00;99.90
12470;DHT22;36499;46.484;13.832;2023-05-14T10:45:13;10.10;99.90
12470;DHT22;36499;46.484;13.832;2023-05-14T10:47:43;10.10;99.90
12470;DHT22;36499;46.484;13.832;2023-05-14T10:50:13;10.10;99.90
12470;DHT22;36499;46.484;13.832;2023-05-14T10:52:42;10.10;99.90
12470;DHT22;36499;46.484;13.832;2023-05-14T10:55:14;10.10;99.90
12470;DHT22;36499;46.484;13.832;2023-05-14T10:57:44;10.10;99.90
12470;DHT22;36499;46.484;13.832;2023-05-14T11:00:12;10.10;99.90
12470;DHT22;36499;46.484;13.832;2023-05-14T11:02:42;10.10;99.90
12470;DHT22;36499;46.484;13.832;2023-05-14T11:05:11;10.10;99.90
12470;DHT22;36499;46.484;13.832;2023-05-14T11:07:43;10.20;99.90
12470;DHT22;36499;46.484;13.832;2023-05-14T11:10:13;10.20;99.90
12470;DHT22;36499;46.484;13.832;2023-05-14T11:12:43;10.30;99.90
12470;DHT22;36499;46.484;13.832;2023-05-14T11:15:12;10.30;99.90
12470;DHT22;36499;46.484;13.832;2023-05-14T11:17:42;10.30;99.90
12470;DHT22;36499;46.484;13.832;2023-05-14T11:20:11;10.40;99.90
12470;DHT22;36499;46.484;13.832;2023-05-14T11:22:40;10.50;99.90
12470;DHT22;36499;46.484;13.832;2023-05-14T11:25:09;10.60;99.90
12470;DHT22;36499;46.484;13.832;2023-05-14T11:27:41;10.60;99.90
12470;DHT22;36499;46.484;13.832;2023-05-14T11:30:12;10.70;99.90
12470;DHT22;36499;46.484;13.832;2023-05-14T11:32:43;10.70;99.90
12470;DHT22;36499;46.484;13.832;2023-05-14T11:35:11;10.80;99.90
12470;DHT22;36499;46.484;13.832;2023-05-14T11:37:39;10.70;99.90
12470;DHT22;36499;46.484;13.832;2023-05-14T11:40:08;10.70;99.90
12470;DHT22;36499;46.484;13.832;2023-05-14T11:42:42;10.70;99.90
12470;DHT22;36499;46.484;13.832;2023-05-14T11:45:10;10.80;99.90
12470;DHT22;36499;46.484;13.832;2023-05-14T11:47:39;10.80;99.90
12470;DHT22;36499;46.484;13.832;2023-05-14T11:50:07;10.80;99.90
12470;DHT22;36499;46.484;13.832;2023-05-14T11:52:37;10.70;99.90
12470;DHT22;36499;46.484;13.832;2023-05-14T11:55:09;10.70;99.90
12470;DHT22;36499;46.484;13.832;2023-05-14T11:57:38;10.70;99.90
12470;DHT22;36499;46.484;13.832;2023-05-14T12:00:10;10.70;99.90
12470;DHT22;36499;46.484;13.832;2023-05-14T12:02:41;10.70;99.90
12470;DHT22;36499;46.484;13.832;2023-05-14T12:05:12;10.60;99.90
12470;DHT22;36499;46.484;13.832;2023-05-14T12:07:39;10.60;99.90
12470;DHT22;36499;46.484;13.832;2023-05-14T12:10:07;10.60;99.90
12470;DHT22;36499;46.484;13.832;2023-05-14T12:12:35;10.60;99.90
12470;DHT22;36499;46.484;13.832;2023-05-14T12:15:11;10.60;99.90
12470;DHT22;36499;46.484;13.832;2023-05-14T12:17:40;10.60;99.90
12470;DHT22;36499;46.484;13.832;2023-05-14T12:20:08;10.50;99.90
12470;DHT22;36499;46.484;13.832;2023-05-14T12:22:37;10.50;99.90
12470;DHT22;36499;46.484;13.832;2023-05-14T12:25:10;10.40;99.90
12470;DHT22;36499;46.484;13.832;2023-05-14T12:27:39;10.40;99.90
12470;DHT22;36499;46.484;13.832;2023-05-14T12:30:07;10.30;99.90
12470;DHT22;36499;46.484;13.832;2023-05-14T12:32:37;10.30;99.90
12470;DHT22;36499;46.484;13.832;2023-05-14T12:35:05;10.30;99.90
12470;DHT22;36499;46.484;13.832;2023-05-14T12:37:33;10.20;99.90
12470;DHT22;36499;46.484;13.832;2023-05-14T12:40:02;10.20;99.90
12470;DHT22;36499;46.484;13.832;2023-05-14T12:42:33;10.30;99.90
12470;DHT22;36499;46.484;13.832;2023-05-14T12:45:00;10.20;99.90
12470;DHT22;36499;46.484;13.832;2023-05-14T12:47:31;10.30;99.90
12470;DHT22;36499;46.484;13.832;2023-05-14T12:50:00;10.20;99.90
12470;DHT22;36499;46.484;13.832;2023-05-14T12:52:27;10.20;99.90
12470;DHT22;36499;46.484;13.832;2023-05-14T12:54:54;10.20;99.90
12470;DHT22;36499;46.484;13.832;2023-05-14T12:57:21;10.20;99.90
12470;DHT22;36499;46.484;13.832;2023-05-14T12:59:48;10.20;99.90
12470;DHT22;36499;46.484;13.832;2023-05-14T13:02:15;10.20;99.90
12470;DHT22;36499;46.484;13.832;2023-05-14T13:04:43;10.20;99.90
12470;DHT22;36499;46.484;13.832;2023-05-14T13:07:12;10.10;99.90
12470;DHT22;36499;46.484;13.832;2023-05-14T13:09:39;10.10;99.90
12470;DHT22;36499;46.484;13.832;2023-05-14T13:12:07;10.10;99.90
12470;DHT22;36499;46.484;13.832;2023-05-14T13:14:34;10.10;99.90
12470;DHT22;36499;46.484;13.832;2023-05-14T13:17:01;10.00;99.90
12470;DHT22;36499;46.484;13.832;2023-05-14T13:19:29;10.00;99.90
12470;DHT22;36499;46.484;13.832;2023-05-14T13:21:56;9.90;99.90
12470;DHT22;36499;46.484;13.832;2023-05-14T13:24:25;9.90;99.90
12470;DHT22;36499;46.484;13.832;2023-05-14T13:26:52;9.80;99.90
12470;DHT22;36499;46.484;13.832;2023-05-14T13:29:19;9.80;99.90
12470;DHT22;36499;46.484;13.832;2023-05-14T13:31:46;9.70;99.90
12470;DHT22;36499;46.484;13.832;2023-05-14T13:34:13;9.80;99.90
12470;DHT22;36499;46.484;13.832;2023-05-14T13:36:40;9.80;99.90
12470;DHT22;36499;46.484;13.832;2023-05-14T13:39:08;9.80;99.90
12470;DHT22;36499;46.484;13.832;2023-05-14T13:41:37;9.80;99.90
12470;DHT22;36499;46.484;13.832;2023-05-14T13:44:05;9.70;99.90
12470;DHT22;36499;46.484;13.832;2023-05-14T13:46:32;9.70;99.90
12470;DHT22;36499;46.484;13.832;2023-05-14T13:48:59;9.70;99.90
12470;DHT22;36499;46.484;13.832;2023-05-14T13:51:26;9.70;99.90
12470;DHT22;36499;46.484;13.832;2023-05-14T13:53:53;9.80;99.90
12470;DHT22;36499;46.484;13.832;2023-05-14T13:56:20;9.80;99.90
12470;DHT22;36499;46.484;13.832;2023-05-14T13:58:48;9.80;99.90
12470;DHT22;36499;46.484;13.832;2023-05-14T14:01:16;9.70;99.90
12470;DHT22;36499;46.484;13.832;2023-05-14T14:03:43;9.70;99.90
12470;DHT22;36499;46.484;13.832;2023-05-14T14:06:10;9.70;99.90
12470;DHT22;36499;46.484;13.832;2023-05-14T14:08:37;9.70;99.90
12470;DHT22;36499;46.484;13.832;2023-05-14T14:11:04;9.70;99.90
12470;DHT22;36499;46.484;13.832;2023-05-14T14:13:32;9.70;99.90
12470;DHT22;36499;46.484;13.832;2023-05-14T14:16:02;9.60;99.90
12470;DHT22;36499;46.484;13.832;2023-05-14T14:18:30;9.60;99.90
12470;DHT22;36499;46.484;13.832;2023-05-14T14:20:57;9.60;99.90
12470;DHT22;36499;46.484;13.832;2023-05-14T14:23:25;9.70;99.90
12470;DHT22;36499;46.484;13.832;2023-05-14T14:25:52;9.70;99.90
12470;DHT22;36499;46.484;13.832;2023-05-14T14:28:19;9.80;99.90
12470;DHT22;36499;46.484;13.832;2023-05-14T14:30:46;9.80;99.90
12470;DHT22;36499;46.484;13.832;2023-05-14T14:33:14;9.80;99.90
12470;DHT22;36499;46.484;13.832;2023-05-14T14:35:41;9.90;99.90
12470;DHT22;36499;46.484;13.832;2023-05-14T14:38:08;9.90;99.90
12470;DHT22;36499;46.484;13.832;2023-05-14T14:40:35;9.80;99.90
12470;DHT22;36499;46.484;13.832;2023-05-14T14:43:02;9.80;99.90
12470;DHT22;36499;46.484;13.832;2023-05-14T14:45:30;9.80;99.90
12470;DHT22;36499;46.484;13.832;2023-05-14T14:48:22;9.80;99.90
12470;DHT22;36499;46.484;13.832;2023-05-14T14:50:51;9.80;99.90
12470;DHT22;36499;46.484;13.832;2023-05-14T14:53:18;9.70;99.90
12470;DHT22;36499;46.484;13.832;2023-05-14T14:55:46;9.60;99.90
12470;DHT22;36499;46.484;13.832;2023-05-14T14:58:13;9.50;99.90
12470;DHT22;36499;46.484;13.832;2023-05-14T15:00:40;9.40;99.90
12470;DHT22;36499;46.484;13.832;2023-05-14T15:03:08;9.30;99.90
12470;DHT22;36499;46.484;13.832;2023-05-14T15:05:37;9.30;99.90
12470;DHT22;36499;46.484;13.832;2023-05-14T15:08:04;9.20;99.90
12470;DHT22;36499;46.484;13.832;2023-05-14T15:10:32;9.10;99.90
12470;DHT22;36499;46.484;13.832;2023-05-14T15:13:02;9.10;99.90
12470;DHT22;36499;46.484;13.832;2023-05-14T15:15:31;9.10;99.90
12470;DHT22;36499;46.484;13.832;2023-05-14T15:17:59;9.10;99.90
12470;DHT22;36499;46.484;13.832;2023-05-14T15:20:26;9.10;99.90
12470;DHT22;36499;46.484;13.832;2023-05-14T15:22:55;9.00;99.90
12470;DHT22;36499;46.484;13.832;2023-05-14T15:25:23;9.00;99.90
12470;DHT22;36499;46.484;13.832;2023-05-14T15:27:52;8.90;99.90
12470;DHT22;36499;46.484;13.832;2023-05-14T15:30:19;8.80;99.90
12470;DHT22;36499;46.484;13.832;2023-05-14T15:32:46;8.80;99.90
12470;DHT22;36499;46.484;13.832;2023-05-14T15:35:13;8.70;99.90